Terminal Aerodrome Forecast
Issued by NWS

Home | Current Version | Previous Version | Text Only | Print | Product List | Glossary On
Versions: 1 2 3 4 5 6 7 8 9 10 11 12 13 14 15 16 17 18 19 20 21 22 23 24 25 26 27 28
000
FTAK31 PANC 192337
TAFADU
TAF
PADU 192337Z 2000/2024 VRB04KT P6SM -RASN SCT006 BKN015
      TEMPO 2000/2003 4SM -SNRA BKN006
     FM201200 VRB04KT P6SM -SHRASN SCT015 BKN060=

USA.gov is the U.S. government's official web portal to all federal, state and local government web resources and services.